Flugplatz Schwarzheide/Schipkau

Für EDBZ sind keine METAR/TAF Berichte vorhanden.
Es werden die Flugwettermeldungen vom Flugplatz Dresden in 40 km Entfernung angezeigt.

Bericht für EDDC

vom 11.07. um 07:20 UTC

Wind 5 kt aus 310°

Sichtweite 10 km oder mehr

gering bewölkt in 1500 ft

aufgelockert bewölkt in 2500 ft

Temperatur 14.0°C

Taupunkt 9.0°C

Luftfeuchtigkeit 72%

Luftdruck 1022 hPa

keine wesentliche Wetteränderung innerhalb den nächsten 2 Stunden zu erwarten

EDDC 110720Z 31005KT 250V040 9999 FEW015 SCT025 14/09 Q1022 NOSIG

Prognose für EDDC

vom 11.07. um 05:00 UTC

Zwischen 06:00 UTC und 06:00 UTC

Wind 3 kt aus 310°

Sichtweite 10 km oder mehr

aufgebrochene Bewölkung in 1400 ft


Zwischen 06:00 und 08:00 UTC übergehend zu

Wind 8 kt aus 320°

Sichtweite 10 km oder mehr

keine signifikanten Wettererscheinungen

keine Wolken


Zwischen 17:00 und 20:00 UTC übergehend zu

Wind 3 kt aus 330°

Sichtweite 10 km oder mehr

keine signifikanten Wettererscheinungen

keine Wolken

TAF EDDC 110500Z 1106/1206 31003KT 9999 BKN014 BECMG 1106/1108 32008KT CAVOK BECMG 1117/1120 33003KT
Impressum